sensor_id;sensor_type;location;lat;lon;timestamp;P1;durP1;ratioP1;P2;durP2;ratioP2
4047;SDS011;2038;51.728;6.674;2022-12-29T00:00:09;1.93;;;1.80;;
4047;SDS011;2038;51.728;6.674;2022-12-29T00:02:36;2.00;;;1.90;;
4047;SDS011;2038;51.728;6.674;2022-12-29T00:05:03;2.00;;;1.90;;
4047;SDS011;2038;51.728;6.674;2022-12-29T00:07:30;2.17;;;2.07;;
4047;SDS011;2038;51.728;6.674;2022-12-29T00:09:56;2.57;;;2.37;;
4047;SDS011;2038;51.728;6.674;2022-12-29T00:12:22;3.10;;;1.80;;
4047;SDS011;2038;51.728;6.674;2022-12-29T00:14:49;2.83;;;2.63;;
4047;SDS011;2038;51.728;6.674;2022-12-29T00:17:33;2.07;;;1.93;;
4047;SDS011;2038;51.728;6.674;2022-12-29T00:19:59;1.70;;;1.60;;
4047;SDS011;2038;51.728;6.674;2022-12-29T00:22:44;3.37;;;2.20;;
4047;SDS011;2038;51.728;6.674;2022-12-29T00:25:29;1.77;;;1.67;;
4047;SDS011;2038;51.728;6.674;2022-12-29T00:28:13;3.23;;;2.53;;
4047;SDS011;2038;51.728;6.674;2022-12-29T00:30:58;3.07;;;2.50;;
4047;SDS011;2038;51.728;6.674;2022-12-29T00:33:44;2.67;;;2.40;;
4047;SDS011;2038;51.728;6.674;2022-12-29T00:36:31;2.50;;;2.30;;
4047;SDS011;2038;51.728;6.674;2022-12-29T00:39:07;3.17;;;2.57;;
4047;SDS011;2038;51.728;6.674;2022-12-29T00:42:06;3.87;;;3.10;;
4047;SDS011;2038;51.728;6.674;2022-12-29T00:44:52;3.07;;;2.83;;
4047;SDS011;2038;51.728;6.674;2022-12-29T00:47:19;3.00;;;2.60;;
4047;SDS011;2038;51.728;6.674;2022-12-29T00:49:45;2.53;;;2.33;;
4047;SDS011;2038;51.728;6.674;2022-12-29T00:52:12;3.53;;;2.90;;
4047;SDS011;2038;51.728;6.674;2022-12-29T00:54:39;3.93;;;2.53;;
4047;SDS011;2038;51.728;6.674;2022-12-29T00:57:07;2.60;;;2.40;;
4047;SDS011;2038;51.728;6.674;2022-12-29T00:59:38;2.40;;;2.20;;
4047;SDS011;2038;51.728;6.674;2022-12-29T01:02:06;3.80;;;2.63;;
4047;SDS011;2038;51.728;6.674;2022-12-29T01:04:34;2.37;;;2.17;;
4047;SDS011;2038;51.728;6.674;2022-12-29T01:07:00;2.60;;;2.40;;
4047;SDS011;2038;51.728;6.674;2022-12-29T01:09:27;1.83;;;1.73;;
4047;SDS011;2038;51.728;6.674;2022-12-29T01:12:11;2.23;;;1.90;;
4047;SDS011;2038;51.728;6.674;2022-12-29T01:14:38;2.00;;;1.80;;
4047;SDS011;2038;51.728;6.674;2022-12-29T01:17:05;4.27;;;2.30;;
4047;SDS011;2038;51.728;6.674;2022-12-29T01:19:31;3.60;;;2.63;;
4047;SDS011;2038;51.728;6.674;2022-12-29T01:21:57;3.07;;;2.13;;
4047;SDS011;2038;51.728;6.674;2022-12-29T01:24:24;2.20;;;1.90;;
4047;SDS011;2038;51.728;6.674;2022-12-29T01:26:51;3.80;;;2.57;;
4047;SDS011;2038;51.728;6.674;2022-12-29T01:29:19;4.60;;;2.40;;
4047;SDS011;2038;51.728;6.674;2022-12-29T01:31:45;4.30;;;2.20;;
4047;SDS011;2038;51.728;6.674;2022-12-29T01:34:11;1.53;;;1.43;;
4047;SDS011;2038;51.728;6.674;2022-12-29T01:36:38;4.43;;;2.40;;
4047;SDS011;2038;51.728;6.674;2022-12-29T01:39:04;1.67;;;1.57;;
4047;SDS011;2038;51.728;6.674;2022-12-29T01:41:30;1.80;;;1.70;;
4047;SDS011;2038;51.728;6.674;2022-12-29T01:43:58;2.60;;;1.70;;
4047;SDS011;2038;51.728;6.674;2022-12-29T01:46:39;1.70;;;1.60;;
4047;SDS011;2038;51.728;6.674;2022-12-29T01:49:14;2.53;;;2.10;;
4047;SDS011;2038;51.728;6.674;2022-12-29T01:51:58;3.23;;;2.10;;
4047;SDS011;2038;51.728;6.674;2022-12-29T01:54:32;2.53;;;1.90;;
4047;SDS011;2038;51.728;6.674;2022-12-29T01:57:08;2.17;;;1.87;;
4047;SDS011;2038;51.728;6.674;2022-12-29T01:59:49;8.50;;;1.60;;
4047;SDS011;2038;51.728;6.674;2022-12-29T02:02:26;2.60;;;1.70;;
4047;SDS011;2038;51.728;6.674;2022-12-29T02:04:53;1.90;;;1.80;;
4047;SDS011;2038;51.728;6.674;2022-12-29T02:07:24;3.07;;;2.00;;
4047;SDS011;2038;51.728;6.674;2022-12-29T02:09:53;2.40;;;1.87;;
4047;SDS011;2038;51.728;6.674;2022-12-29T02:12:21;1.63;;;1.53;;
4047;SDS011;2038;51.728;6.674;2022-12-29T02:14:50;2.10;;;1.20;;
4047;SDS011;2038;51.728;6.674;2022-12-29T02:26:08;1.93;;;1.80;;
4047;SDS011;2038;51.728;6.674;2022-12-29T02:41:50;1.83;;;1.67;;
4047;SDS011;2038;51.728;6.674;2022-12-29T02:47:00;2.13;;;1.40;;
4047;SDS011;2038;51.728;6.674;2022-12-29T02:50:31;1.57;;;1.33;;
4047;SDS011;2038;51.728;6.674;2022-12-29T02:52:51;2.50;;;1.53;;
4047;SDS011;2038;51.728;6.674;2022-12-29T02:56:10;1.90;;;1.40;;
4047;SDS011;2038;51.728;6.674;2022-12-29T02:58:37;1.70;;;1.60;;
4047;SDS011;2038;51.728;6.674;2022-12-29T03:03:48;2.30;;;1.67;;
4047;SDS011;2038;51.728;6.674;2022-12-29T03:06:52;1.70;;;1.50;;
4047;SDS011;2038;51.728;6.674;2022-12-29T03:12:35;2.57;;;1.50;;
4047;SDS011;2038;51.728;6.674;2022-12-29T03:15:47;2.23;;;1.70;;
4047;SDS011;2038;51.728;6.674;2022-12-29T03:18:34;3.67;;;1.63;;
4047;SDS011;2038;51.728;6.674;2022-12-29T03:21:22;1.47;;;1.33;;
4047;SDS011;2038;51.728;6.674;2022-12-29T03:24:29;4.20;;;1.50;;
4047;SDS011;2038;51.728;6.674;2022-12-29T03:27:01;4.30;;;2.00;;
4047;SDS011;2038;51.728;6.674;2022-12-29T03:29:33;1.83;;;1.43;;
4047;SDS011;2038;51.728;6.674;2022-12-29T03:32:07;3.63;;;1.23;;
4047;SDS011;2038;51.728;6.674;2022-12-29T03:34:38;2.03;;;1.70;;
4047;SDS011;2038;51.728;6.674;2022-12-29T03:37:14;1.50;;;1.30;;
4047;SDS011;2038;51.728;6.674;2022-12-29T03:39:48;3.27;;;1.70;;
4047;SDS011;2038;51.728;6.674;2022-12-29T03:42:16;8.90;;;2.00;;
4047;SDS011;2038;51.728;6.674;2022-12-29T03:44:53;1.63;;;1.47;;
4047;SDS011;2038;51.728;6.674;2022-12-29T03:47:22;4.50;;;1.50;;
4047;SDS011;2038;51.728;6.674;2022-12-29T03:49:49;2.60;;;1.40;;
4047;SDS011;2038;51.728;6.674;2022-12-29T03:52:16;3.47;;;1.10;;
4047;SDS011;2038;51.728;6.674;2022-12-29T03:54:43;2.60;;;1.23;;
4047;SDS011;2038;51.728;6.674;2022-12-29T03:57:10;3.27;;;2.17;;
4047;SDS011;2038;51.728;6.674;2022-12-29T03:59:36;1.97;;;1.20;;
4047;SDS011;2038;51.728;6.674;2022-12-29T04:02:02;4.90;;;1.20;;
4047;SDS011;2038;51.728;6.674;2022-12-29T04:04:29;1.37;;;1.10;;
4047;SDS011;2038;51.728;6.674;2022-12-29T04:06:55;1.60;;;1.30;;
4047;SDS011;2038;51.728;6.674;2022-12-29T04:09:21;1.37;;;1.20;;
4047;SDS011;2038;51.728;6.674;2022-12-29T04:11:47;2.80;;;1.00;;
4047;SDS011;2038;51.728;6.674;2022-12-29T04:14:13;1.07;;;0.70;;
4047;SDS011;2038;51.728;6.674;2022-12-29T04:16:40;3.30;;;1.20;;
4047;SDS011;2038;51.728;6.674;2022-12-29T04:19:06;0.70;;;0.70;;
4047;SDS011;2038;51.728;6.674;2022-12-29T04:21:33;1.80;;;0.80;;
4047;SDS011;2038;51.728;6.674;2022-12-29T04:23:59;1.40;;;1.20;;
4047;SDS011;2038;51.728;6.674;2022-12-29T04:26:26;3.93;;;0.90;;
4047;SDS011;2038;51.728;6.674;2022-12-29T04:28:52;0.70;;;0.60;;
4047;SDS011;2038;51.728;6.674;2022-12-29T04:31:18;1.30;;;1.00;;
4047;SDS011;2038;51.728;6.674;2022-12-29T04:33:44;3.70;;;1.00;;
4047;SDS011;2038;51.728;6.674;2022-12-29T04:36:11;2.23;;;1.17;;
4047;SDS011;2038;51.728;6.674;2022-12-29T04:38:37;3.17;;;1.00;;
4047;SDS011;2038;51.728;6.674;2022-12-29T04:41:03;2.00;;;1.00;;
4047;SDS011;2038;51.728;6.674;2022-12-29T04:43:30;1.27;;;1.17;;
4047;SDS011;2038;51.728;6.674;2022-12-29T04:45:56;2.40;;;1.23;;
4047;SDS011;2038;51.728;6.674;2022-12-29T04:48:22;1.03;;;0.93;;
4047;SDS011;2038;51.728;6.674;2022-12-29T04:50:48;1.47;;;0.83;;
4047;SDS011;2038;51.728;6.674;2022-12-29T04:53:15;1.23;;;1.00;;
4047;SDS011;2038;51.728;6.674;2022-12-29T04:55:42;0.90;;;0.90;;
4047;SDS011;2038;51.728;6.674;2022-12-29T04:58:09;2.20;;;1.10;;
4047;SDS011;2038;51.728;6.674;2022-12-29T05:00:35;4.07;;;1.60;;
4047;SDS011;2038;51.728;6.674;2022-12-29T05:03:01;1.83;;;1.20;;
4047;SDS011;2038;51.728;6.674;2022-12-29T05:05:27;3.00;;;0.90;;
4047;SDS011;2038;51.728;6.674;2022-12-29T05:07:54;1.93;;;1.10;;
4047;SDS011;2038;51.728;6.674;2022-12-29T05:10:20;2.07;;;1.03;;
4047;SDS011;2038;51.728;6.674;2022-12-29T05:12:46;1.47;;;1.00;;
4047;SDS011;2038;51.728;6.674;2022-12-29T05:15:12;5.27;;;1.00;;
4047;SDS011;2038;51.728;6.674;2022-12-29T05:17:39;1.30;;;1.20;;
4047;SDS011;2038;51.728;6.674;2022-12-29T05:20:05;1.83;;;1.00;;
4047;SDS011;2038;51.728;6.674;2022-12-29T05:22:32;5.37;;;1.03;;
4047;SDS011;2038;51.728;6.674;2022-12-29T05:24:58;3.07;;;1.53;;
4047;SDS011;2038;51.728;6.674;2022-12-29T05:27:25;2.33;;;1.27;;
4047;SDS011;2038;51.728;6.674;2022-12-29T05:29:51;7.67;;;2.00;;
4047;SDS011;2038;51.728;6.674;2022-12-29T05:32:17;1.27;;;1.10;;
4047;SDS011;2038;51.728;6.674;2022-12-29T05:34:43;3.13;;;2.00;;
4047;SDS011;2038;51.728;6.674;2022-12-29T05:37:10;5.80;;;1.70;;
4047;SDS011;2038;51.728;6.674;2022-12-29T05:39:36;4.30;;;1.50;;
4047;SDS011;2038;51.728;6.674;2022-12-29T05:42:02;3.40;;;1.90;;
4047;SDS011;2038;51.728;6.674;2022-12-29T05:44:28;2.87;;;1.23;;
4047;SDS011;2038;51.728;6.674;2022-12-29T05:46:55;7.40;;;1.23;;
4047;SDS011;2038;51.728;6.674;2022-12-29T05:49:21;4.83;;;1.03;;
4047;SDS011;2038;51.728;6.674;2022-12-29T05:51:47;9.23;;;1.83;;
4047;SDS011;2038;51.728;6.674;2022-12-29T05:54:13;8.73;;;1.53;;
4047;SDS011;2038;51.728;6.674;2022-12-29T05:56:40;3.53;;;1.40;;
4047;SDS011;2038;51.728;6.674;2022-12-29T05:59:06;2.13;;;1.10;;
4047;SDS011;2038;51.728;6.674;2022-12-29T06:01:32;1.20;;;1.07;;
4047;SDS011;2038;51.728;6.674;2022-12-29T06:03:59;1.40;;;1.23;;
4047;SDS011;2038;51.728;6.674;2022-12-29T06:06:25;1.97;;;1.70;;
4047;SDS011;2038;51.728;6.674;2022-12-29T06:08:51;1.93;;;1.20;;
4047;SDS011;2038;51.728;6.674;2022-12-29T06:11:18;5.33;;;1.30;;
4047;SDS011;2038;51.728;6.674;2022-12-29T06:13:44;8.90;;;1.13;;
4047;SDS011;2038;51.728;6.674;2022-12-29T06:16:10;2.27;;;1.37;;
4047;SDS011;2038;51.728;6.674;2022-12-29T06:18:36;5.47;;;1.47;;
4047;SDS011;2038;51.728;6.674;2022-12-29T06:21:03;3.83;;;1.83;;
4047;SDS011;2038;51.728;6.674;2022-12-29T06:23:30;2.80;;;1.30;;
4047;SDS011;2038;51.728;6.674;2022-12-29T06:25:57;6.07;;;1.87;;
4047;SDS011;2038;51.728;6.674;2022-12-29T06:28:23;4.30;;;1.83;;
4047;SDS011;2038;51.728;6.674;2022-12-29T06:30:49;5.70;;;1.43;;
4047;SDS011;2038;51.728;6.674;2022-12-29T06:33:16;11.10;;;2.27;;
4047;SDS011;2038;51.728;6.674;2022-12-29T06:35:42;2.37;;;1.50;;
4047;SDS011;2038;51.728;6.674;2022-12-29T06:38:10;3.03;;;1.37;;
4047;SDS011;2038;51.728;6.674;2022-12-29T06:40:37;5.13;;;1.63;;
4047;SDS011;2038;51.728;6.674;2022-12-29T06:43:03;9.73;;;1.93;;
4047;SDS011;2038;51.728;6.674;2022-12-29T06:45:29;6.07;;;1.93;;
4047;SDS011;2038;51.728;6.674;2022-12-29T06:47:55;1.43;;;1.33;;
4047;SDS011;2038;51.728;6.674;2022-12-29T06:50:21;6.00;;;1.63;;
4047;SDS011;2038;51.728;6.674;2022-12-29T06:52:48;8.33;;;1.60;;
4047;SDS011;2038;51.728;6.674;2022-12-29T06:55:14;5.23;;;1.63;;
4047;SDS011;2038;51.728;6.674;2022-12-29T06:57:41;2.50;;;1.80;;
4047;SDS011;2038;51.728;6.674;2022-12-29T07:00:07;6.00;;;1.97;;
4047;SDS011;2038;51.728;6.674;2022-12-29T07:02:34;5.50;;;1.83;;
4047;SDS011;2038;51.728;6.674;2022-12-29T07:05:00;5.23;;;2.90;;
4047;SDS011;2038;51.728;6.674;2022-12-29T07:07:27;10.70;;;2.23;;
4047;SDS011;2038;51.728;6.674;2022-12-29T07:09:53;7.90;;;2.33;;
4047;SDS011;2038;51.728;6.674;2022-12-29T07:12:19;3.63;;;1.57;;
4047;SDS011;2038;51.728;6.674;2022-12-29T07:14:46;8.90;;;2.10;;
4047;SDS011;2038;51.728;6.674;2022-12-29T07:17:12;5.27;;;1.80;;
4047;SDS011;2038;51.728;6.674;2022-12-29T07:19:38;6.07;;;2.30;;
4047;SDS011;2038;51.728;6.674;2022-12-29T07:22:04;13.93;;;2.10;;
4047;SDS011;2038;51.728;6.674;2022-12-29T07:24:30;3.67;;;1.80;;
4047;SDS011;2038;51.728;6.674;2022-12-29T07:26:57;5.50;;;2.10;;
4047;SDS011;2038;51.728;6.674;2022-12-29T07:29:23;5.53;;;1.93;;
4047;SDS011;2038;51.728;6.674;2022-12-29T07:31:49;5.43;;;1.97;;
4047;SDS011;2038;51.728;6.674;2022-12-29T07:34:15;2.60;;;1.97;;
4047;SDS011;2038;51.728;6.674;2022-12-29T07:36:41;5.90;;;3.03;;
4047;SDS011;2038;51.728;6.674;2022-12-29T07:39:08;3.63;;;1.60;;
4047;SDS011;2038;51.728;6.674;2022-12-29T07:41:34;3.70;;;1.43;;
4047;SDS011;2038;51.728;6.674;2022-12-29T07:44:00;10.97;;;2.00;;
4047;SDS011;2038;51.728;6.674;2022-12-29T07:46:26;9.93;;;1.90;;
4047;SDS011;2038;51.728;6.674;2022-12-29T07:48:53;10.90;;;1.80;;
4047;SDS011;2038;51.728;6.674;2022-12-29T07:51:19;6.80;;;1.90;;
4047;SDS011;2038;51.728;6.674;2022-12-29T07:53:45;3.07;;;2.07;;
4047;SDS011;2038;51.728;6.674;2022-12-29T07:56:11;5.23;;;2.07;;
4047;SDS011;2038;51.728;6.674;2022-12-29T07:58:38;6.67;;;2.00;;
4047;SDS011;2038;51.728;6.674;2022-12-29T08:01:04;8.90;;;2.30;;
4047;SDS011;2038;51.728;6.674;2022-12-29T08:03:30;5.87;;;2.13;;
4047;SDS011;2038;51.728;6.674;2022-12-29T08:05:56;9.17;;;2.10;;
4047;SDS011;2038;51.728;6.674;2022-12-29T08:08:23;3.30;;;2.23;;
4047;SDS011;2038;51.728;6.674;2022-12-29T08:10:49;6.50;;;2.30;;
4047;SDS011;2038;51.728;6.674;2022-12-29T08:13:15;4.70;;;1.20;;
4047;SDS011;2038;51.728;6.674;2022-12-29T08:15:41;6.03;;;2.10;;
4047;SDS011;2038;51.728;6.674;2022-12-29T08:18:08;11.07;;;2.27;;
4047;SDS011;2038;51.728;6.674;2022-12-29T08:20:34;17.27;;;2.43;;
4047;SDS011;2038;51.728;6.674;2022-12-29T08:23:00;9.50;;;2.30;;
4047;SDS011;2038;51.728;6.674;2022-12-29T08:25:26;7.80;;;1.93;;
4047;SDS011;2038;51.728;6.674;2022-12-29T08:27:53;8.77;;;2.70;;
4047;SDS011;2038;51.728;6.674;2022-12-29T08:30:19;10.57;;;2.17;;
4047;SDS011;2038;51.728;6.674;2022-12-29T08:32:45;18.37;;;3.10;;
4047;SDS011;2038;51.728;6.674;2022-12-29T08:35:11;9.40;;;2.40;;
4047;SDS011;2038;51.728;6.674;2022-12-29T08:37:38;9.30;;;2.13;;
4047;SDS011;2038;51.728;6.674;2022-12-29T08:40:04;10.57;;;2.70;;
4047;SDS011;2038;51.728;6.674;2022-12-29T08:42:31;5.00;;;2.33;;
4047;SDS011;2038;51.728;6.674;2022-12-29T08:44:58;14.90;;;2.90;;
4047;SDS011;2038;51.728;6.674;2022-12-29T08:47:25;5.53;;;2.10;;
4047;SDS011;2038;51.728;6.674;2022-12-29T08:49:52;8.60;;;2.40;;
4047;SDS011;2038;51.728;6.674;2022-12-29T08:52:18;9.50;;;1.90;;
4047;SDS011;2038;51.728;6.674;2022-12-29T08:54:45;7.67;;;2.50;;
4047;SDS011;2038;51.728;6.674;2022-12-29T08:57:11;12.30;;;3.43;;
4047;SDS011;2038;51.728;6.674;2022-12-29T08:59:37;7.10;;;2.53;;
4047;SDS011;2038;51.728;6.674;2022-12-29T09:02:03;5.43;;;2.30;;
4047;SDS011;2038;51.728;6.674;2022-12-29T09:04:30;5.67;;;2.07;;
4047;SDS011;2038;51.728;6.674;2022-12-29T09:06:56;5.37;;;1.70;;
4047;SDS011;2038;51.728;6.674;2022-12-29T09:09:22;12.03;;;2.53;;
4047;SDS011;2038;51.728;6.674;2022-12-29T09:11:49;10.83;;;1.83;;
4047;SDS011;2038;51.728;6.674;2022-12-29T09:14:15;6.97;;;2.87;;
4047;SDS011;2038;51.728;6.674;2022-12-29T09:16:41;4.20;;;1.80;;
4047;SDS011;2038;51.728;6.674;2022-12-29T09:19:26;10.40;;;2.60;;
4047;SDS011;2038;51.728;6.674;2022-12-29T09:21:52;5.83;;;2.00;;
4047;SDS011;2038;51.728;6.674;2022-12-29T09:24:18;8.17;;;2.83;;
4047;SDS011;2038;51.728;6.674;2022-12-29T09:26:44;10.80;;;2.77;;
4047;SDS011;2038;51.728;6.674;2022-12-29T09:29:10;3.80;;;1.70;;
4047;SDS011;2038;51.728;6.674;2022-12-29T09:31:37;19.37;;;2.70;;
4047;SDS011;2038;51.728;6.674;2022-12-29T09:34:03;11.23;;;2.27;;
4047;SDS011;2038;51.728;6.674;2022-12-29T09:36:29;7.90;;;2.40;;
4047;SDS011;2038;51.728;6.674;2022-12-29T09:38:55;8.57;;;1.90;;
4047;SDS011;2038;51.728;6.674;2022-12-29T09:41:36;3.60;;;2.40;;
4047;SDS011;2038;51.728;6.674;2022-12-29T09:47:21;7.20;;;2.50;;
4047;SDS011;2038;51.728;6.674;2022-12-29T09:49:56;5.03;;;1.90;;
4047;SDS011;2038;51.728;6.674;2022-12-29T09:52:36;3.13;;;1.77;;
4047;SDS011;2038;51.728;6.674;2022-12-29T09:55:16;6.50;;;1.93;;
4047;SDS011;2038;51.728;6.674;2022-12-29T10:00:41;13.03;;;2.57;;
4047;SDS011;2038;51.728;6.674;2022-12-29T10:03:46;7.67;;;2.00;;
4047;SDS011;2038;51.728;6.674;2022-12-29T10:06:23;8.27;;;2.47;;
4047;SDS011;2038;51.728;6.674;2022-12-29T10:15:25;7.40;;;1.80;;
4047;SDS011;2038;51.728;6.674;2022-12-29T10:18:19;8.30;;;1.40;;
4047;SDS011;2038;51.728;6.674;2022-12-29T10:21:00;4.60;;;1.57;;
4047;SDS011;2038;51.728;6.674;2022-12-29T10:23:51;7.27;;;2.20;;
4047;SDS011;2038;51.728;6.674;2022-12-29T10:26:22;9.70;;;2.43;;
4047;SDS011;2038;51.728;6.674;2022-12-29T10:28:59;12.30;;;2.50;;
4047;SDS011;2038;51.728;6.674;2022-12-29T10:31:36;8.77;;;2.90;;
4047;SDS011;2038;51.728;6.674;2022-12-29T10:34:19;4.23;;;2.23;;
4047;SDS011;2038;51.728;6.674;2022-12-29T10:36:53;12.63;;;3.07;;
4047;SDS011;2038;51.728;6.674;2022-12-29T10:39:42;9.60;;;2.10;;
4047;SDS011;2038;51.728;6.674;2022-12-29T10:42:34;6.90;;;1.97;;
4047;SDS011;2038;51.728;6.674;2022-12-29T10:45:11;7.90;;;2.40;;
4047;SDS011;2038;51.728;6.674;2022-12-29T10:47:49;6.70;;;2.03;;
4047;SDS011;2038;51.728;6.674;2022-12-29T10:50:26;8.07;;;2.13;;
4047;SDS011;2038;51.728;6.674;2022-12-29T10:52:54;8.17;;;2.30;;
4047;SDS011;2038;51.728;6.674;2022-12-29T10:55:31;13.73;;;3.67;;
4047;SDS011;2038;51.728;6.674;2022-12-29T10:58:02;6.43;;;1.83;;
4047;SDS011;2038;51.728;6.674;2022-12-29T11:00:32;22.73;;;3.40;;
4047;SDS011;2038;51.728;6.674;2022-12-29T11:03:41;12.73;;;2.30;;
4047;SDS011;2038;51.728;6.674;2022-12-29T11:06:17;8.83;;;2.20;;
4047;SDS011;2038;51.728;6.674;2022-12-29T11:08:57;5.33;;;1.97;;
4047;SDS011;2038;51.728;6.674;2022-12-29T11:11:36;14.80;;;2.37;;
4047;SDS011;2038;51.728;6.674;2022-12-29T11:14:10;8.63;;;2.47;;
4047;SDS011;2038;51.728;6.674;2022-12-29T11:16:42;9.83;;;2.20;;
4047;SDS011;2038;51.728;6.674;2022-12-29T11:19:22;7.07;;;2.43;;
4047;SDS011;2038;51.728;6.674;2022-12-29T11:21:51;5.90;;;1.77;;
4047;SDS011;2038;51.728;6.674;2022-12-29T11:24:23;9.30;;;2.10;;
4047;SDS011;2038;51.728;6.674;2022-12-29T11:26:53;8.73;;;2.00;;
4047;SDS011;2038;51.728;6.674;2022-12-29T11:29:39;19.90;;;2.47;;
4047;SDS011;2038;51.728;6.674;2022-12-29T11:32:20;6.50;;;1.90;;
4047;SDS011;2038;51.728;6.674;2022-12-29T11:34:51;4.40;;;1.90;;
4047;SDS011;2038;51.728;6.674;2022-12-29T11:37:18;12.20;;;3.00;;
4047;SDS011;2038;51.728;6.674;2022-12-29T11:40:04;9.43;;;2.47;;
4047;SDS011;2038;51.728;6.674;2022-12-29T11:42:53;5.93;;;2.07;;
4047;SDS011;2038;51.728;6.674;2022-12-29T11:47:57;8.00;;;2.57;;
4047;SDS011;2038;51.728;6.674;2022-12-29T11:50:32;15.77;;;3.30;;
4047;SDS011;2038;51.728;6.674;2022-12-29T11:53:25;9.87;;;2.80;;
4047;SDS011;2038;51.728;6.674;2022-12-29T11:56:01;6.33;;;2.17;;
4047;SDS011;2038;51.728;6.674;2022-12-29T11:58:36;16.70;;;3.00;;
4047;SDS011;2038;51.728;6.674;2022-12-29T12:03:56;4.47;;;1.93;;
4047;SDS011;2038;51.728;6.674;2022-12-29T12:06:43;7.13;;;2.37;;
4047;SDS011;2038;51.728;6.674;2022-12-29T12:09:31;9.30;;;2.37;;
4047;SDS011;2038;51.728;6.674;2022-12-29T12:12:23;6.13;;;2.13;;
4047;SDS011;2038;51.728;6.674;2022-12-29T12:15:00;13.63;;;2.77;;
4047;SDS011;2038;51.728;6.674;2022-12-29T12:17:33;6.37;;;2.30;;
4047;SDS011;2038;51.728;6.674;2022-12-29T12:26:48;7.03;;;2.50;;
4047;SDS011;2038;51.728;6.674;2022-12-29T12:29:28;5.97;;;2.33;;
4047;SDS011;2038;51.728;6.674;2022-12-29T12:35:23;9.13;;;2.50;;
4047;SDS011;2038;51.728;6.674;2022-12-29T12:38:04;8.20;;;2.70;;
4047;SDS011;2038;51.728;6.674;2022-12-29T12:41:00;6.10;;;2.73;;
4047;SDS011;2038;51.728;6.674;2022-12-29T12:48:04;7.40;;;2.27;;
4047;SDS011;2038;51.728;6.674;2022-12-29T12:53:41;9.13;;;2.20;;
4047;SDS011;2038;51.728;6.674;2022-12-29T12:56:15;11.23;;;2.33;;
4047;SDS011;2038;51.728;6.674;2022-12-29T12:59:12;5.13;;;2.43;;
4047;SDS011;2038;51.728;6.674;2022-12-29T13:05:57;15.03;;;3.13;;
4047;SDS011;2038;51.728;6.674;2022-12-29T13:11:59;10.97;;;4.03;;
4047;SDS011;2038;51.728;6.674;2022-12-29T13:20:25;12.77;;;3.03;;
4047;SDS011;2038;51.728;6.674;2022-12-29T13:23:18;10.13;;;2.70;;
4047;SDS011;2038;51.728;6.674;2022-12-29T13:29:23;12.33;;;3.07;;
4047;SDS011;2038;51.728;6.674;2022-12-29T13:32:18;8.60;;;2.30;;
4047;SDS011;2038;51.728;6.674;2022-12-29T13:38:18;5.83;;;2.13;;
4047;SDS011;2038;51.728;6.674;2022-12-29T13:41:00;9.13;;;3.07;;
4047;SDS011;2038;51.728;6.674;2022-12-29T13:43:37;14.13;;;3.00;;
4047;SDS011;2038;51.728;6.674;2022-12-29T13:46:24;9.17;;;3.77;;
4047;SDS011;2038;51.728;6.674;2022-12-29T13:51:50;11.07;;;2.30;;
4047;SDS011;2038;51.728;6.674;2022-12-29T14:00:16;10.33;;;2.90;;
4047;SDS011;2038;51.728;6.674;2022-12-29T14:06:04;10.53;;;2.50;;
4047;SDS011;2038;51.728;6.674;2022-12-29T14:09:00;10.63;;;2.43;;
4047;SDS011;2038;51.728;6.674;2022-12-29T14:11:34;8.53;;;1.73;;
4047;SDS011;2038;51.728;6.674;2022-12-29T14:14:13;10.70;;;2.50;;
4047;SDS011;2038;51.728;6.674;2022-12-29T14:16:57;7.97;;;3.30;;
4047;SDS011;2038;51.728;6.674;2022-12-29T14:19:39;11.13;;;2.40;;
4047;SDS011;2038;51.728;6.674;2022-12-29T14:22:09;8.80;;;3.20;;
4047;SDS011;2038;51.728;6.674;2022-12-29T14:24:38;9.27;;;2.40;;
4047;SDS011;2038;51.728;6.674;2022-12-29T14:37:28;16.17;;;2.40;;
4047;SDS011;2038;51.728;6.674;2022-12-29T14:42:51;9.93;;;3.13;;
4047;SDS011;2038;51.728;6.674;2022-12-29T14:45:28;9.00;;;2.63;;
4047;SDS011;2038;51.728;6.674;2022-12-29T14:47:57;7.10;;;2.40;;
4047;SDS011;2038;51.728;6.674;2022-12-29T14:50:38;8.80;;;3.23;;
4047;SDS011;2038;51.728;6.674;2022-12-29T14:56:17;9.50;;;2.80;;
4047;SDS011;2038;51.728;6.674;2022-12-29T14:58:51;21.60;;;3.60;;
4047;SDS011;2038;51.728;6.674;2022-12-29T15:04:15;9.17;;;3.73;;
4047;SDS011;2038;51.728;6.674;2022-12-29T15:06:50;5.37;;;2.50;;
4047;SDS011;2038;51.728;6.674;2022-12-29T15:09:20;6.77;;;2.20;;
4047;SDS011;2038;51.728;6.674;2022-12-29T15:15:17;9.30;;;2.17;;
4047;SDS011;2038;51.728;6.674;2022-12-29T15:17:51;3.40;;;2.07;;
4047;SDS011;2038;51.728;6.674;2022-12-29T15:22:52;22.37;;;4.30;;
4047;SDS011;2038;51.728;6.674;2022-12-29T15:25:23;6.93;;;1.87;;
4047;SDS011;2038;51.728;6.674;2022-12-29T15:27:51;4.57;;;1.80;;
4047;SDS011;2038;51.728;6.674;2022-12-29T15:30:28;9.87;;;2.63;;
4047;SDS011;2038;51.728;6.674;2022-12-29T15:32:55;14.67;;;3.30;;
4047;SDS011;2038;51.728;6.674;2022-12-29T15:35:26;7.20;;;3.40;;
4047;SDS011;2038;51.728;6.674;2022-12-29T15:38:01;7.13;;;3.60;;
4047;SDS011;2038;51.728;6.674;2022-12-29T15:40:44;20.70;;;3.27;;
4047;SDS011;2038;51.728;6.674;2022-12-29T15:46:05;9.37;;;2.63;;
4047;SDS011;2038;51.728;6.674;2022-12-29T15:48:32;6.03;;;3.00;;
4047;SDS011;2038;51.728;6.674;2022-12-29T15:50:58;7.00;;;2.83;;
4047;SDS011;2038;51.728;6.674;2022-12-29T15:53:27;12.83;;;3.23;;
4047;SDS011;2038;51.728;6.674;2022-12-29T15:55:59;14.40;;;2.80;;
4047;SDS011;2038;51.728;6.674;2022-12-29T15:58:45;6.93;;;2.67;;
4047;SDS011;2038;51.728;6.674;2022-12-29T16:01:19;6.47;;;3.40;;
4047;SDS011;2038;51.728;6.674;2022-12-29T16:04:01;8.00;;;2.67;;
4047;SDS011;2038;51.728;6.674;2022-12-29T16:06:33;12.47;;;3.17;;
4047;SDS011;2038;51.728;6.674;2022-12-29T16:09:15;5.63;;;2.53;;
4047;SDS011;2038;51.728;6.674;2022-12-29T16:11:53;9.50;;;2.33;;
4047;SDS011;2038;51.728;6.674;2022-12-29T16:17:14;9.37;;;2.47;;
4047;SDS011;2038;51.728;6.674;2022-12-29T16:19:49;10.03;;;2.47;;
4047;SDS011;2038;51.728;6.674;2022-12-29T16:22:36;10.00;;;2.33;;
4047;SDS011;2038;51.728;6.674;2022-12-29T16:25:15;5.67;;;2.13;;
4047;SDS011;2038;51.728;6.674;2022-12-29T16:28:02;11.80;;;2.90;;
4047;SDS011;2038;51.728;6.674;2022-12-29T16:30:46;6.00;;;2.20;;
4047;SDS011;2038;51.728;6.674;2022-12-29T16:33:35;9.83;;;2.77;;
4047;SDS011;2038;51.728;6.674;2022-12-29T16:39:10;11.57;;;3.30;;
4047;SDS011;2038;51.728;6.674;2022-12-29T16:41:47;9.30;;;2.73;;
4047;SDS011;2038;51.728;6.674;2022-12-29T16:44:19;9.10;;;2.40;;
4047;SDS011;2038;51.728;6.674;2022-12-29T16:49:34;4.73;;;1.80;;
4047;SDS011;2038;51.728;6.674;2022-12-29T16:52:18;6.13;;;2.17;;
4047;SDS011;2038;51.728;6.674;2022-12-29T16:54:59;11.43;;;2.40;;
4047;SDS011;2038;51.728;6.674;2022-12-29T16:57:33;4.50;;;1.77;;
4047;SDS011;2038;51.728;6.674;2022-12-29T17:00:06;6.23;;;2.30;;
4047;SDS011;2038;51.728;6.674;2022-12-29T17:02:44;4.57;;;2.10;;
4047;SDS011;2038;51.728;6.674;2022-12-29T17:05:14;4.97;;;2.50;;
4047;SDS011;2038;51.728;6.674;2022-12-29T17:07:42;5.77;;;2.77;;
4047;SDS011;2038;51.728;6.674;2022-12-29T17:10:10;3.90;;;2.40;;
4047;SDS011;2038;51.728;6.674;2022-12-29T17:12:38;5.43;;;2.43;;
4047;SDS011;2038;51.728;6.674;2022-12-29T17:15:10;4.07;;;1.80;;
4047;SDS011;2038;51.728;6.674;2022-12-29T17:17:56;7.63;;;2.40;;
4047;SDS011;2038;51.728;6.674;2022-12-29T17:20:26;6.67;;;2.03;;
4047;SDS011;2038;51.728;6.674;2022-12-29T17:22:54;4.30;;;1.97;;
4047;SDS011;2038;51.728;6.674;2022-12-29T17:25:26;4.63;;;2.40;;
4047;SDS011;2038;51.728;6.674;2022-12-29T17:27:59;5.90;;;2.60;;
4047;SDS011;2038;51.728;6.674;2022-12-29T17:30:38;4.67;;;2.33;;
4047;SDS011;2038;51.728;6.674;2022-12-29T17:33:05;9.43;;;2.30;;
4047;SDS011;2038;51.728;6.674;2022-12-29T17:35:38;6.40;;;2.17;;
4047;SDS011;2038;51.728;6.674;2022-12-29T17:40:54;3.80;;;2.10;;
4047;SDS011;2038;51.728;6.674;2022-12-29T17:43:21;7.30;;;2.23;;
4047;SDS011;2038;51.728;6.674;2022-12-29T17:45:50;8.20;;;2.10;;
4047;SDS011;2038;51.728;6.674;2022-12-29T17:48:20;4.50;;;2.17;;
4047;SDS011;2038;51.728;6.674;2022-12-29T17:50:47;6.10;;;2.27;;
4047;SDS011;2038;51.728;6.674;2022-12-29T17:53:21;7.03;;;2.10;;
4047;SDS011;2038;51.728;6.674;2022-12-29T17:55:53;6.20;;;1.80;;
4047;SDS011;2038;51.728;6.674;2022-12-29T17:58:20;8.73;;;2.70;;
4047;SDS011;2038;51.728;6.674;2022-12-29T18:00:53;9.17;;;2.03;;